createdAt,value
2018-08-18T00:00:27.069Z,94.00
2018-08-18T00:02:55.992Z,94.40
2018-08-18T00:05:24.501Z,94.50
2018-08-18T00:07:53.033Z,94.70
2018-08-18T00:10:22.773Z,94.90
2018-08-18T00:12:51.445Z,94.80
2018-08-18T00:15:20.007Z,94.70
2018-08-18T00:17:48.523Z,94.80
2018-08-18T00:20:19.490Z,94.80
2018-08-18T00:22:48.636Z,94.90
2018-08-18T00:25:17.474Z,95.00
2018-08-18T00:27:45.981Z,95.10
2018-08-18T00:31:53.794Z,95.30
2018-08-18T00:34:23.830Z,95.70
2018-08-18T00:36:52.962Z,96.50
2018-08-18T00:39:21.698Z,96.30
2018-08-18T00:41:50.220Z,96.60
2018-08-18T00:44:18.705Z,96.70
2018-08-18T00:46:47.213Z,96.70
2018-08-18T00:49:17.377Z,96.70
2018-08-18T00:51:45.838Z,96.70
2018-08-18T00:59:08.509Z,97.00
2018-08-18T01:01:37.076Z,96.90
2018-08-18T01:04:07.606Z,97.20
2018-08-18T01:06:40.213Z,97.00
2018-08-18T01:09:12.382Z,97.20
2018-08-18T01:11:42.934Z,97.20
2018-08-18T01:14:16.865Z,97.10
2018-08-18T01:16:51.021Z,97.00
2018-08-18T01:19:20.590Z,97.00
2018-08-18T01:21:56.463Z,97.20
2018-08-18T01:24:25.147Z,97.20
2018-08-18T01:26:53.634Z,97.60
2018-08-18T01:29:22.174Z,97.40
2018-08-18T01:31:52.174Z,97.50
2018-08-18T01:34:20.689Z,97.30
2018-08-18T01:36:49.617Z,97.40
2018-08-18T01:39:19.894Z,97.60
2018-08-18T01:41:48.357Z,97.70
2018-08-18T01:44:20.518Z,97.90
2018-08-18T01:46:50.257Z,98.10
2018-08-18T01:49:25.422Z,98.00
2018-08-18T01:51:53.893Z,98.40
2018-08-18T01:54:22.357Z,98.70
2018-08-18T01:56:53.653Z,98.80
2018-08-18T01:59:22.243Z,98.90
2018-08-18T02:01:50.730Z,98.90
2018-08-18T02:04:19.902Z,98.90
2018-08-18T02:06:48.422Z,99.00
2018-08-18T02:09:17.461Z,99.00
2018-08-18T02:11:47.483Z,99.20
2018-08-18T02:14:20.858Z,99.40
2018-08-18T02:16:51.875Z,99.40
2018-08-18T02:19:20.342Z,99.30
2018-08-18T02:21:48.822Z,99.70
2018-08-18T02:24:17.417Z,99.80
2018-08-18T02:26:45.882Z,99.90
2018-08-18T02:34:08.650Z,99.90
2018-08-18T02:36:37.165Z,99.90
2018-08-18T02:39:07.709Z,99.90
2018-08-18T02:41:37.627Z,99.90
2018-08-18T02:44:06.312Z,99.90
2018-08-18T02:46:36.640Z,99.90
2018-08-18T02:49:05.617Z,99.90
2018-08-18T02:51:34.514Z,99.90
2018-08-18T02:54:03.304Z,99.90
2018-08-18T02:56:46.721Z,99.90
2018-08-18T03:04:11.417Z,99.90
2018-08-18T03:06:40.873Z,99.90
2018-08-18T03:09:10.694Z,99.90
2018-08-18T03:11:42.686Z,99.90
2018-08-18T03:14:11.373Z,99.90
2018-08-18T03:16:42.081Z,99.90
2018-08-18T03:19:13.714Z,99.90
2018-08-18T03:21:43.941Z,99.90
2018-08-18T03:24:22.293Z,99.90
2018-08-18T03:26:55.620Z,99.90
2018-08-18T03:29:25.335Z,99.90
2018-08-18T03:31:54.146Z,99.90
2018-08-18T03:34:22.852Z,99.90
2018-08-18T03:36:54.754Z,99.90
2018-08-18T03:39:28.912Z,99.90
2018-08-18T03:42:01.837Z,99.90
2018-08-18T03:44:30.318Z,99.90
2018-08-18T03:46:58.906Z,99.90
2018-08-18T03:49:27.429Z,99.90
2018-08-18T03:51:56.386Z,99.90
2018-08-18T03:54:24.937Z,99.90
2018-08-18T03:56:54.262Z,99.90
2018-08-18T03:59:22.737Z,99.90
2018-08-18T04:02:05.809Z,99.90
2018-08-18T04:04:35.446Z,99.90
2018-08-18T04:07:05.433Z,99.90
2018-08-18T04:09:35.126Z,99.90
2018-08-18T04:12:04.870Z,99.90
2018-08-18T04:14:38.697Z,99.90
2018-08-18T04:17:38.238Z,99.90
2018-08-18T04:20:07.171Z,99.90
2018-08-18T04:22:35.698Z,99.90
2018-08-18T04:25:05.047Z,99.90
2018-08-18T04:27:38.395Z,99.90
2018-08-18T04:30:11.743Z,99.90
2018-08-18T04:32:50.490Z,99.90
2018-08-18T04:35:21.089Z,99.90
2018-08-18T04:37:50.303Z,99.90
2018-08-18T04:40:19.004Z,99.90
2018-08-18T04:42:47.602Z,99.90
2018-08-18T04:45:19.849Z,99.90
2018-08-18T04:47:48.374Z,99.90
2018-08-18T04:50:17.444Z,99.90
2018-08-18T04:52:45.954Z,99.90
2018-08-18T05:00:13.734Z,99.90
2018-08-18T05:02:59.613Z,99.90
2018-08-18T05:05:29.490Z,99.90
2018-08-18T05:07:59.439Z,99.90
2018-08-18T05:10:29.065Z,99.90
2018-08-18T05:12:57.594Z,99.90
2018-08-18T05:15:26.090Z,99.90
2018-08-18T05:17:54.581Z,99.90
2018-08-18T05:20:26.889Z,99.90
2018-08-18T05:22:57.596Z,99.90
2018-08-18T05:25:33.082Z,99.90
2018-08-18T05:28:02.021Z,99.90
2018-08-18T05:30:30.519Z,99.90
2018-08-18T05:32:59.071Z,99.90
2018-08-18T05:35:27.541Z,99.90
2018-08-18T05:37:56.016Z,99.90
2018-08-18T05:40:25.029Z,99.90
2018-08-18T05:42:53.666Z,99.90
2018-08-18T05:45:25.082Z,99.90
2018-08-18T05:47:54.170Z,99.90
2018-08-18T05:50:24.310Z,99.90
2018-08-18T05:52:57.389Z,99.90
2018-08-18T05:55:26.262Z,99.90
2018-08-18T05:57:54.738Z,99.90
2018-08-18T06:00:25.115Z,99.90
2018-08-18T06:02:58.547Z,99.90
2018-08-18T06:05:29.098Z,99.90
2018-08-18T06:07:58.116Z,99.90
2018-08-18T06:10:27.108Z,99.90
2018-08-18T06:12:55.930Z,99.90
2018-08-18T06:15:24.943Z,99.90
2018-08-18T06:17:53.539Z,99.90
2018-08-18T06:20:22.634Z,99.90
2018-08-18T06:22:51.130Z,99.90
2018-08-18T06:25:19.634Z,99.90
2018-08-18T06:27:48.274Z,99.90
2018-08-18T06:30:17.520Z,99.30
2018-08-18T06:32:46.065Z,95.90
2018-08-18T06:40:16.535Z,90.20
2018-08-18T06:42:46.609Z,82.40
2018-08-18T06:50:13.006Z,74.50
2018-08-18T06:52:44.755Z,64.60
2018-08-18T06:55:15.100Z,60.10
2018-08-18T06:57:48.582Z,57.90
2018-08-18T07:00:19.860Z,56.50
2018-08-18T07:02:48.442Z,55.40
2018-08-18T07:05:18.536Z,54.50
2018-08-18T07:07:47.813Z,52.50
2018-08-18T07:15:32.218Z,51.00
2018-08-18T07:18:00.793Z,52.70
2018-08-18T07:20:29.425Z,53.20
2018-08-18T07:22:57.962Z,55.00
2018-08-18T07:25:26.435Z,57.20
2018-08-18T07:28:00.565Z,58.00
2018-08-18T07:30:29.857Z,59.50
2018-08-18T07:32:58.617Z,62.00
2018-08-18T07:35:27.769Z,63.30
2018-08-18T07:37:56.262Z,63.60
2018-08-18T07:40:31.977Z,65.50
2018-08-18T07:43:05.665Z,66.70
2018-08-18T07:45:36.327Z,66.40
2018-08-18T07:48:05.680Z,66.00
2018-08-18T07:50:35.399Z,64.60
2018-08-18T07:53:04.830Z,65.80
2018-08-18T07:55:33.375Z,67.80
2018-08-18T07:58:03.403Z,67.30
2018-08-18T08:00:33.360Z,65.20
2018-08-18T08:03:02.255Z,63.20
2018-08-18T08:05:31.716Z,57.50
2018-08-18T08:08:00.418Z,53.20
2018-08-18T08:10:30.069Z,49.50
2018-08-18T08:12:58.730Z,44.80
2018-08-18T08:15:28.020Z,41.40
2018-08-18T08:17:56.698Z,38.00
2018-08-18T08:20:26.365Z,36.10
2018-08-18T08:22:55.642Z,34.60
2018-08-18T08:25:24.199Z,34.00
2018-08-18T08:27:53.653Z,34.40
2018-08-18T08:30:23.674Z,33.30
2018-08-18T08:32:52.243Z,32.90
2018-08-18T08:35:20.838Z,32.10
2018-08-18T08:37:51.896Z,31.70
2018-08-18T08:40:21.424Z,31.80
2018-08-18T08:42:49.983Z,30.50
2018-08-18T08:45:20.202Z,30.20
2018-08-18T08:47:49.284Z,29.60
2018-08-18T08:50:19.942Z,30.50
2018-08-18T08:52:50.630Z,30.20
2018-08-18T08:55:20.255Z,29.70
2018-08-18T08:57:48.778Z,30.20
2018-08-18T09:00:18.041Z,29.10
2018-08-18T09:02:46.566Z,28.80
2018-08-18T09:10:12.833Z,28.80
2018-08-18T09:12:41.749Z,27.60
2018-08-18T09:15:11.459Z,27.80
2018-08-18T09:17:41.115Z,27.20
2018-08-18T09:20:12.951Z,27.10
2018-08-18T09:23:00.664Z,27.20
2018-08-18T09:25:30.841Z,28.40
2018-08-18T09:28:00.843Z,27.30
2018-08-18T09:30:30.613Z,27.10
2018-08-18T09:33:00.655Z,27.00
2018-08-18T09:35:29.209Z,28.00
2018-08-18T09:37:59.813Z,29.30
2018-08-18T09:40:29.878Z,29.60
2018-08-18T09:42:58.362Z,29.90
2018-08-18T09:45:27.063Z,28.30
2018-08-18T09:47:55.499Z,28.90
2018-08-18T09:50:24.087Z,28.30
2018-08-18T09:52:52.632Z,28.20
2018-08-18T09:55:21.182Z,27.60
2018-08-18T09:57:49.662Z,29.00
2018-08-18T10:00:18.319Z,28.90
2018-08-18T10:02:46.858Z,29.30
2018-08-18T10:10:13.434Z,32.20
2018-08-18T10:12:42.052Z,32.80
2018-08-18T10:15:10.654Z,33.20
2018-08-18T10:17:39.869Z,33.80
2018-08-18T10:20:08.478Z,34.40
2018-08-18T10:22:37.037Z,35.30
2018-08-18T10:25:06.406Z,36.10
2018-08-18T10:27:34.907Z,35.40
2018-08-18T10:30:03.523Z,36.50
2018-08-18T10:32:32.726Z,37.80
2018-08-18T10:35:01.247Z,37.40
2018-08-18T10:37:29.779Z,38.20
2018-08-18T10:40:07.958Z,38.20
2018-08-18T10:42:36.440Z,38.70
2018-08-18T10:45:06.190Z,37.90
2018-08-18T10:47:34.811Z,39.70
2018-08-18T10:51:15.538Z,39.50
2018-08-18T10:53:44.030Z,40.50
2018-08-18T10:56:13.372Z,40.40
2018-08-18T10:58:53.078Z,41.90
2018-08-18T11:01:21.606Z,43.30
2018-08-18T11:03:50.101Z,44.20
2018-08-18T11:06:20.102Z,45.00
2018-08-18T11:08:48.573Z,45.00
2018-08-18T11:11:18.615Z,46.10
2018-08-18T11:13:47.631Z,45.90
2018-08-18T11:16:16.890Z,45.80
2018-08-18T11:18:46.082Z,45.30
2018-08-18T11:26:10.665Z,44.50
2018-08-18T11:28:39.240Z,45.80
2018-08-18T11:31:07.819Z,45.90
2018-08-18T11:33:41.748Z,47.10
2018-08-18T11:36:11.107Z,47.20
2018-08-18T11:38:39.689Z,47.80
2018-08-18T11:41:09.117Z,48.20
2018-08-18T11:43:48.955Z,49.10
2018-08-18T11:46:17.951Z,48.90
2018-08-18T11:48:46.398Z,48.50
2018-08-18T11:56:16.016Z,48.30
2018-08-18T11:58:49.006Z,49.80
2018-08-18T12:01:22.254Z,49.40
2018-08-18T12:03:51.044Z,48.90
2018-08-18T12:06:19.552Z,49.10
2018-08-18T12:08:48.065Z,48.90
2018-08-18T12:11:17.514Z,48.40
2018-08-18T12:13:46.004Z,49.20
2018-08-18T12:21:07.874Z,49.70
2018-08-18T12:23:37.374Z,49.40
2018-08-18T12:26:10.770Z,50.50
2018-08-18T12:28:45.160Z,50.30
2018-08-18T12:31:54.286Z,49.50
2018-08-18T12:34:22.770Z,48.50
2018-08-18T12:36:51.317Z,48.80
2018-08-18T12:39:19.827Z,50.20
2018-08-18T12:41:48.338Z,50.80
2018-08-18T12:44:22.752Z,50.40
2018-08-18T12:46:51.254Z,51.00
2018-08-18T12:49:19.730Z,51.30
2018-08-18T12:51:48.281Z,50.30
2018-08-18T12:54:17.461Z,51.00
2018-08-18T12:56:45.926Z,48.90
2018-08-18T13:04:12.095Z,52.10
2018-08-18T13:06:43.163Z,51.40
2018-08-18T13:09:13.450Z,50.00
2018-08-18T13:11:42.867Z,49.90
2018-08-18T13:14:11.873Z,47.80
2018-08-18T13:16:40.738Z,48.20
2018-08-18T13:19:09.230Z,48.40
2018-08-18T13:21:37.730Z,48.40
2018-08-18T13:24:06.843Z,49.00
2018-08-18T13:26:35.428Z,46.90
2018-08-18T13:29:03.991Z,45.70
2018-08-18T13:31:39.363Z,47.10
2018-08-18T13:34:09.823Z,48.30
2018-08-18T13:36:39.598Z,48.30
2018-08-18T13:39:11.841Z,48.80
2018-08-18T13:41:40.622Z,48.90
2018-08-18T13:44:09.134Z,47.80
2018-08-18T13:46:47.790Z,48.40
2018-08-18T13:49:20.742Z,47.10
2018-08-18T13:51:49.307Z,49.10
2018-08-18T13:54:17.900Z,49.40
2018-08-18T13:56:46.486Z,48.50
2018-08-18T13:59:41.307Z,49.20
2018-08-18T14:02:10.177Z,50.10
2018-08-18T14:04:41.562Z,49.50
2018-08-18T14:07:10.383Z,48.80
2018-08-18T14:09:44.090Z,48.60
2018-08-18T14:12:16.912Z,48.20
2018-08-18T14:14:46.332Z,49.40
2018-08-18T14:22:21.063Z,49.50
2018-08-18T14:24:49.678Z,49.80
2018-08-18T14:27:20.511Z,50.10
2018-08-18T14:29:49.119Z,49.40
2018-08-18T14:32:22.970Z,50.40
2018-08-18T14:34:56.827Z,49.70
2018-08-18T14:37:25.578Z,49.30
2018-08-18T14:39:54.912Z,49.30
2018-08-18T14:42:26.614Z,50.70
2018-08-18T14:44:59.566Z,51.10
2018-08-18T14:47:28.137Z,50.20
2018-08-18T14:50:14.097Z,51.00
2018-08-18T14:52:44.397Z,49.30
2018-08-18T14:55:12.973Z,50.30
2018-08-18T14:57:51.792Z,50.30
2018-08-18T15:00:20.959Z,48.90
2018-08-18T15:02:49.505Z,46.70
2018-08-18T15:05:18.363Z,48.10
2018-08-18T15:07:50.903Z,46.30
2018-08-18T15:10:31.311Z,46.70
2018-08-18T15:13:00.304Z,48.00
2018-08-18T15:15:29.618Z,46.50
2018-08-18T15:18:02.072Z,46.80
2018-08-18T15:20:33.631Z,46.60
2018-08-18T15:23:03.042Z,45.50
2018-08-18T15:25:32.499Z,45.60
2018-08-18T15:28:05.899Z,45.30
2018-08-18T15:30:35.607Z,46.70
2018-08-18T15:33:04.855Z,47.10
2018-08-18T15:35:35.978Z,48.10
2018-08-18T15:38:05.149Z,47.60
2018-08-18T15:40:33.659Z,47.60
2018-08-18T15:43:02.542Z,48.40
2018-08-18T15:45:31.409Z,49.10
2018-08-18T15:47:59.950Z,50.30
2018-08-18T15:50:29.151Z,50.20
2018-08-18T15:52:57.672Z,51.10
2018-08-18T15:55:26.437Z,52.20
2018-08-18T15:57:55.461Z,50.40
2018-08-18T16:00:32.215Z,50.80
2018-08-18T16:03:01.130Z,49.40
2018-08-18T16:05:30.620Z,50.30
2018-08-18T16:07:59.168Z,49.90
2018-08-18T16:10:27.733Z,50.40
2018-08-18T16:12:56.242Z,48.70
2018-08-18T16:15:25.368Z,49.20
2018-08-18T16:17:54.422Z,49.30
2018-08-18T16:20:24.557Z,51.10
2018-08-18T16:22:54.630Z,51.40
2018-08-18T16:25:31.599Z,49.50
2018-08-18T16:28:00.138Z,49.10
2018-08-18T16:30:28.662Z,50.30
2018-08-18T16:33:11.982Z,50.20
2018-08-18T16:35:41.815Z,50.50
2018-08-18T16:38:10.842Z,50.70
2018-08-18T16:40:39.831Z,51.70
2018-08-18T16:43:09.879Z,52.10
2018-08-18T16:45:38.531Z,52.50
2018-08-18T16:48:08.321Z,52.40
2018-08-18T16:50:37.801Z,53.20
2018-08-18T16:53:07.493Z,53.00
2018-08-18T16:55:38.353Z,52.60
2018-08-18T16:58:08.483Z,52.70
2018-08-18T17:01:09.268Z,52.90
2018-08-18T17:03:37.789Z,53.00
2018-08-18T17:06:06.789Z,53.10
2018-08-18T17:08:36.134Z,53.50
2018-08-18T17:11:06.115Z,54.50
2018-08-18T17:13:35.858Z,53.80
2018-08-18T17:16:08.759Z,54.50
2018-08-18T17:18:37.226Z,54.70
2018-08-18T17:21:07.330Z,54.60
2018-08-18T17:23:37.667Z,54.50
2018-08-18T17:26:07.017Z,54.10
2018-08-18T17:28:35.589Z,54.00
2018-08-18T17:31:05.183Z,55.00
2018-08-18T17:33:34.064Z,54.20
2018-08-18T17:36:03.306Z,53.90
2018-08-18T17:38:31.840Z,54.90
2018-08-18T17:41:00.422Z,54.70
2018-08-18T17:43:30.019Z,55.30
2018-08-18T17:45:59.846Z,54.50
2018-08-18T17:48:29.458Z,53.60
2018-08-18T17:50:58.038Z,54.60
2018-08-18T17:53:26.519Z,56.20
2018-08-18T17:56:00.918Z,55.80
2018-08-18T17:58:29.401Z,55.60
2018-08-18T18:00:57.933Z,56.80
2018-08-18T18:03:26.434Z,56.90
2018-08-18T18:05:56.226Z,56.00
2018-08-18T18:08:24.833Z,56.50
2018-08-18T18:10:53.519Z,57.90
2018-08-18T18:13:25.979Z,57.50
2018-08-18T18:15:56.657Z,58.40
2018-08-18T18:18:31.202Z,58.40
2018-08-18T18:20:59.758Z,58.60
2018-08-18T18:23:28.575Z,59.00
2018-08-18T18:25:57.214Z,58.90
2018-08-18T18:28:32.422Z,59.20
2018-08-18T18:31:01.015Z,59.90
2018-08-18T18:33:29.571Z,60.40
2018-08-18T18:35:59.096Z,61.20
2018-08-18T18:38:27.586Z,61.90
2018-08-18T18:40:56.074Z,62.40
2018-08-18T18:43:24.691Z,62.80
2018-08-18T18:45:53.279Z,62.90
2018-08-18T18:48:21.738Z,63.60
2018-08-18T18:50:51.253Z,64.10
2018-08-18T18:53:19.776Z,64.10
2018-08-18T18:55:55.269Z,64.50
2018-08-18T18:58:23.764Z,64.80
2018-08-18T19:01:00.422Z,65.10
2018-08-18T19:03:29.738Z,65.50
2018-08-18T19:05:58.414Z,66.20
2018-08-18T19:08:27.065Z,66.40
2018-08-18T19:10:55.614Z,66.30
2018-08-18T19:13:26.048Z,66.80
2018-08-18T19:15:55.258Z,67.50
2018-08-18T19:18:23.778Z,68.00
2018-08-18T19:20:52.258Z,68.60
2018-08-18T19:23:21.962Z,69.20
2018-08-18T19:25:51.829Z,70.10
2018-08-18T19:28:21.629Z,71.00
2018-08-18T19:30:50.187Z,71.30
2018-08-18T19:33:19.121Z,72.30
2018-08-18T19:35:48.927Z,72.80
2018-08-18T19:38:20.391Z,73.90
2018-08-18T19:40:51.090Z,74.70
2018-08-18T19:43:20.697Z,75.20
2018-08-18T19:45:49.558Z,76.00
2018-08-18T19:48:19.723Z,77.10
2018-08-18T19:50:56.737Z,77.50
2018-08-18T19:53:27.537Z,78.00
2018-08-18T19:55:57.623Z,79.00
2018-08-18T19:58:26.860Z,79.40
2018-08-18T20:00:55.349Z,80.30
2018-08-18T20:03:24.346Z,80.70
2018-08-18T20:05:56.328Z,81.80
2018-08-18T20:08:26.258Z,82.40
2018-08-18T20:10:55.620Z,83.60
2018-08-18T20:13:25.410Z,84.30
2018-08-18T20:15:55.981Z,84.60
2018-08-18T20:18:24.503Z,85.50
2018-08-18T20:20:53.091Z,86.10
2018-08-18T20:23:22.053Z,86.90
2018-08-18T20:25:51.414Z,86.80
2018-08-18T20:28:20.789Z,87.40
2018-08-18T20:30:49.783Z,87.30
2018-08-18T20:33:18.279Z,87.90
2018-08-18T20:35:46.766Z,88.20
2018-08-18T20:43:15.906Z,89.00
2018-08-18T20:45:47.478Z,89.00
2018-08-18T20:48:20.327Z,89.90
2018-08-18T20:50:48.938Z,89.80
2018-08-18T20:53:19.137Z,90.40
2018-08-18T20:55:59.422Z,90.20
2018-08-18T20:58:28.264Z,90.40
2018-08-18T21:00:56.775Z,90.40
2018-08-18T21:03:36.601Z,90.50
2018-08-18T21:06:06.724Z,90.50
2018-08-18T21:08:36.978Z,90.60
2018-08-18T21:11:05.781Z,90.80
2018-08-18T21:13:34.483Z,91.00
2018-08-18T21:16:04.865Z,91.10
2018-08-18T21:18:34.024Z,91.20
2018-08-18T21:21:07.413Z,91.30
2018-08-18T21:23:36.146Z,91.30
2018-08-18T21:26:05.103Z,91.50
2018-08-18T21:28:33.690Z,91.60
2018-08-18T21:31:05.005Z,92.00
2018-08-18T21:33:33.486Z,91.90
2018-08-18T21:36:02.107Z,92.10
2018-08-18T21:38:30.686Z,92.10
2018-08-18T21:40:59.172Z,92.20
2018-08-18T21:43:32.909Z,92.30
2018-08-18T21:46:01.394Z,92.40
2018-08-18T21:48:41.550Z,92.50
2018-08-18T21:51:10.062Z,92.70
2018-08-18T21:53:38.546Z,92.80
2018-08-18T21:56:08.416Z,92.90
2018-08-18T21:58:36.894Z,92.80
2018-08-18T22:01:11.422Z,92.80
2018-08-18T22:03:40.003Z,93.10
2018-08-18T22:06:08.518Z,93.10
2018-08-18T22:08:37.059Z,93.10
2018-08-18T22:11:06.316Z,93.30
2018-08-18T22:13:44.251Z,93.40
2018-08-18T22:16:12.718Z,93.40
2018-08-18T22:18:50.282Z,93.50
2018-08-18T22:21:23.010Z,93.60
2018-08-18T22:23:51.512Z,93.60
2018-08-18T22:26:21.454Z,93.70
2018-08-18T22:29:05.073Z,93.50
2018-08-18T22:31:35.305Z,94.00
2018-08-18T22:34:05.062Z,94.10
2018-08-18T22:36:35.750Z,94.20
2018-08-18T22:39:06.742Z,94.30
2018-08-18T22:41:35.895Z,94.50
2018-08-18T22:44:04.623Z,94.70
2018-08-18T22:46:33.594Z,94.80
2018-08-18T22:49:02.049Z,94.90
2018-08-18T22:51:30.625Z,95.00
2018-08-18T22:53:59.205Z,95.30
2018-08-18T22:56:34.935Z,95.10
2018-08-18T22:59:05.142Z,95.30
2018-08-18T23:01:34.969Z,95.10
2018-08-18T23:04:04.702Z,95.40
2018-08-18T23:06:35.325Z,95.40
2018-08-18T23:09:05.797Z,95.60
2018-08-18T23:11:34.311Z,95.80
2018-08-18T23:14:02.814Z,96.30
2018-08-18T23:16:31.631Z,96.60
2018-08-18T23:19:00.657Z,96.70
2018-08-18T23:21:30.310Z,96.70
2018-08-18T23:24:00.510Z,96.90
2018-08-18T23:26:29.579Z,97.50
2018-08-18T23:28:58.078Z,97.50
2018-08-18T23:31:26.595Z,97.30
2018-08-18T23:33:55.798Z,97.30
2018-08-18T23:36:24.305Z,97.80
2018-08-18T23:38:58.249Z,98.20
2018-08-18T23:41:26.766Z,98.50
2018-08-18T23:43:55.258Z,98.60
2018-08-18T23:46:23.810Z,99.10
2018-08-18T23:48:52.298Z,99.30
2018-08-18T23:51:25.928Z,99.60
2018-08-18T23:53:54.397Z,99.80
2018-08-18T23:56:22.922Z,99.90
2018-08-18T23:58:52.144Z,99.80
